createdAt,value
2022-12-08T00:01:30.686Z,86765.00
2022-12-08T00:04:03.649Z,86765.75
2022-12-08T00:06:40.322Z,86761.38
2022-12-08T00:09:18.152Z,86760.44
2022-12-08T00:11:45.341Z,86757.88
2022-12-08T00:14:12.496Z,86758.34
2022-12-08T00:16:40.032Z,86765.00
2022-12-08T00:19:07.263Z,86752.75
2022-12-08T00:21:34.556Z,86756.63
2022-12-08T00:24:01.768Z,86752.28
2022-12-08T00:26:29.003Z,86754.84
2022-12-08T00:28:56.231Z,86754.22
2022-12-08T00:31:23.452Z,86750.56
2022-12-08T00:33:51.008Z,86749.06
2022-12-08T00:36:18.259Z,86752.22
2022-12-08T00:38:45.459Z,86753.06
2022-12-08T00:41:22.281Z,86751.38
2022-12-08T00:43:49.549Z,86741.69
2022-12-08T00:46:16.922Z,86754.97
2022-12-08T00:48:44.185Z,86751.38
2022-12-08T00:51:11.338Z,86753.94
2022-12-08T00:53:38.525Z,86754.63
2022-12-08T00:56:05.893Z,86753.88
2022-12-08T00:58:33.139Z,86753.41
2022-12-08T01:01:00.349Z,86751.41
2022-12-08T01:03:27.592Z,86749.72
2022-12-08T01:05:54.774Z,86756.63
2022-12-08T01:08:22.006Z,86758.75
2022-12-08T01:10:49.285Z,86753.91
2022-12-08T01:13:16.481Z,86757.97
2022-12-08T01:15:43.651Z,86755.88
2022-12-08T01:18:10.865Z,86759.66
2022-12-08T01:20:38.058Z,86750.47
2022-12-08T01:23:05.331Z,86752.75
2022-12-08T01:25:34.896Z,86754.84
2022-12-08T01:28:02.086Z,86755.59
2022-12-08T01:30:29.399Z,86749.19
2022-12-08T01:32:56.860Z,86757.81
2022-12-08T01:35:24.191Z,86757.81
2022-12-08T01:37:52.501Z,86745.75
2022-12-08T01:40:19.740Z,86746.22
2022-12-08T01:42:47.007Z,86746.13
2022-12-08T01:45:35.980Z,86743.28
2022-12-08T01:48:15.915Z,86746.13
2022-12-08T01:50:44.176Z,86747.19
2022-12-08T01:53:26.719Z,86736.94
2022-12-08T01:56:03.449Z,86733.44
2022-12-08T01:58:39.958Z,86734.00
2022-12-08T02:01:07.525Z,86724.50
2022-12-08T02:03:47.507Z,86726.41
2022-12-08T02:06:17.613Z,86729.44
2022-12-08T02:08:47.617Z,86724.78
2022-12-08T02:11:14.841Z,86720.63
2022-12-08T02:13:46.277Z,86717.28
2022-12-08T02:17:04.396Z,86722.59
2022-12-08T02:20:08.390Z,86715.19
2022-12-08T02:23:13.278Z,86710.38
2022-12-08T02:26:44.374Z,86704.28
2022-12-08T02:29:45.577Z,86705.81
2022-12-08T02:32:52.967Z,86702.69
2022-12-08T02:35:39.882Z,86700.59
2022-12-08T02:38:33.040Z,86702.69
2022-12-08T02:41:28.079Z,86697.38
2022-12-08T02:44:12.580Z,86687.72
2022-12-08T02:46:55.733Z,86688.19
2022-12-08T02:49:35.777Z,86689.63
2022-12-08T02:52:29.564Z,86687.50
2022-12-08T02:55:09.382Z,86686.28
2022-12-08T02:58:00.982Z,86684.03
2022-12-08T03:00:39.669Z,86689.44
2022-12-08T03:03:44.892Z,86689.53
2022-12-08T03:06:39.513Z,86684.69
2022-12-08T03:09:36.200Z,86682.66
2022-12-08T03:12:31.785Z,86680.09
2022-12-08T03:15:08.091Z,86681.13
2022-12-08T03:17:38.663Z,86679.03
2022-12-08T03:20:12.975Z,86674.19
2022-12-08T03:22:43.885Z,86678.84
2022-12-08T03:25:15.472Z,86679.31
2022-12-08T03:27:43.938Z,86678.25
2022-12-08T03:30:11.825Z,86675.22
2022-12-08T03:32:42.038Z,86666.97
2022-12-08T03:35:16.430Z,86666.50
2022-12-08T03:37:44.409Z,86664.88
2022-12-08T03:40:17.831Z,86664.53
2022-12-08T03:42:45.115Z,86655.59
2022-12-08T03:45:12.679Z,86650.03
2022-12-08T03:47:39.949Z,86651.81
2022-12-08T03:50:07.936Z,86649.72
2022-12-08T03:52:35.113Z,86644.59
2022-12-08T03:55:02.626Z,86648.69
2022-12-08T03:57:29.921Z,86645.66
2022-12-08T03:59:57.334Z,86649.00
2022-12-08T04:02:24.572Z,86647.00
2022-12-08T04:04:51.857Z,86641.09
2022-12-08T04:07:19.377Z,86645.66
2022-12-08T04:09:46.567Z,86637.97
2022-12-08T04:12:13.772Z,86635.41
2022-12-08T04:14:40.986Z,86628.78
2022-12-08T04:17:08.160Z,86625.94
2022-12-08T04:19:35.387Z,86633.63
2022-12-08T04:22:02.656Z,86634.28
2022-12-08T04:24:29.947Z,86639.41
2022-12-08T04:26:57.288Z,86632.78
2022-12-08T04:29:24.650Z,86632.31
2022-12-08T04:31:51.999Z,86631.56
2022-12-08T04:34:19.750Z,86632.13
2022-12-08T04:36:47.316Z,86634.69
2022-12-08T04:39:14.617Z,86636.94
2022-12-08T04:41:41.831Z,86635.25
2022-12-08T04:44:08.985Z,86640.97
2022-12-08T04:46:41.671Z,86636.88
2022-12-08T04:49:12.730Z,86636.88
2022-12-08T04:51:40.300Z,86636.41
2022-12-08T04:54:08.443Z,86631.84
2022-12-08T04:56:37.399Z,86630.25
2022-12-08T04:59:05.176Z,86629.19
2022-12-08T05:01:32.626Z,86638.88
2022-12-08T05:03:59.990Z,86625.97
2022-12-08T05:06:27.203Z,86624.44
2022-12-08T05:08:56.822Z,86617.22
2022-12-08T05:11:24.033Z,86621.41
2022-12-08T05:13:51.366Z,86618.56
2022-12-08T05:16:18.742Z,86616.19
2022-12-08T05:18:46.072Z,86620.72
2022-12-08T05:21:13.292Z,86620.91
2022-12-08T05:23:40.555Z,86611.16
2022-12-08T05:26:07.924Z,86611.16
2022-12-08T05:28:43.493Z,86605.84
2022-12-08T05:31:17.143Z,86607.06
2022-12-08T05:33:45.304Z,86608.69
2022-12-08T05:36:15.258Z,86611.72
2022-12-08T05:38:43.350Z,86603.28
2022-12-08T05:41:19.016Z,86605.09
2022-12-08T05:43:47.405Z,86600.06
2022-12-08T05:46:15.707Z,86600.06
2022-12-08T05:48:43.195Z,86601.88
2022-12-08T05:51:23.472Z,86599.91
2022-12-08T05:53:53.185Z,86601.03
2022-12-08T05:56:21.433Z,86600.41
2022-12-08T05:58:48.651Z,86596.78
2022-12-08T06:01:27.573Z,86598.31
2022-12-08T06:03:57.044Z,86600.41
2022-12-08T06:06:24.789Z,86602.97
2022-12-08T06:08:52.775Z,86601.53
2022-12-08T06:11:28.196Z,86602.84
2022-12-08T06:13:56.765Z,86597.84
2022-12-08T06:16:27.012Z,86604.94
2022-12-08T06:18:54.649Z,86610.06
2022-12-08T06:21:22.039Z,86612.91
2022-12-08T06:23:52.882Z,86617.25
2022-12-08T06:26:21.213Z,86614.25
2022-12-08T06:28:50.045Z,86612.72
2022-12-08T06:31:26.134Z,86604.78
2022-12-08T06:33:55.329Z,86610.44
2022-12-08T06:36:26.786Z,86613.47
2022-12-08T06:38:54.523Z,86611.78
2022-12-08T06:41:22.530Z,86610.34
2022-12-08T06:43:50.454Z,86608.56
2022-12-08T06:46:20.034Z,86603.63
2022-12-08T06:48:47.736Z,86602.59
2022-12-08T06:51:21.460Z,86605.72
2022-12-08T06:53:48.736Z,86603.91
2022-12-08T06:56:16.902Z,86607.22
2022-12-08T06:58:50.444Z,86615.09
2022-12-08T07:01:20.187Z,86613.88
2022-12-08T07:03:47.647Z,86618.59
2022-12-08T07:06:19.556Z,86615.00
2022-12-08T07:08:46.946Z,86616.44
2022-12-08T07:11:20.931Z,86615.09
2022-12-08T07:13:49.933Z,86614.63
2022-12-08T07:16:20.127Z,86613.31
2022-12-08T07:18:48.080Z,86616.44
2022-12-08T07:21:17.441Z,86617.34
2022-12-08T07:23:54.393Z,86620.97
2022-12-08T07:26:24.974Z,86613.94
2022-12-08T07:28:52.186Z,86610.44
2022-12-08T07:31:25.357Z,86617.47
2022-12-08T07:33:53.194Z,86611.50
2022-12-08T07:36:21.348Z,86613.56
2022-12-08T07:38:49.966Z,86610.34
2022-12-08T07:41:23.469Z,86609.66
2022-12-08T07:43:54.072Z,86607.59
2022-12-08T07:46:24.024Z,86607.47
2022-12-08T07:48:53.269Z,86606.88
2022-12-08T07:51:22.232Z,86598.34
2022-12-08T07:53:54.632Z,86603.63
2022-12-08T07:56:23.277Z,86608.09
2022-12-08T07:58:50.777Z,86609.22
2022-12-08T08:01:30.943Z,86608.97
2022-12-08T08:04:01.332Z,86618.06
2022-12-08T08:06:29.023Z,86602.09
2022-12-08T08:08:56.576Z,86611.06
2022-12-08T08:11:24.117Z,86609.63
2022-12-08T08:13:52.493Z,86609.22
2022-12-08T08:16:20.591Z,86614.50
2022-12-08T08:18:50.586Z,86602.03
2022-12-08T08:24:07.952Z,86600.28
2022-12-08T08:26:38.657Z,86597.00
2022-12-08T08:29:06.913Z,86592.31
2022-12-08T08:31:34.478Z,86587.13
2022-12-08T08:34:02.949Z,86581.88
2022-12-08T08:36:30.343Z,86589.25
2022-12-08T08:38:57.676Z,86584.31
2022-12-08T08:41:27.163Z,86577.88
2022-12-08T08:43:56.072Z,86577.72
2022-12-08T08:46:23.589Z,86572.44
2022-12-08T08:48:50.930Z,86575.03
2022-12-08T08:51:18.399Z,86578.53
2022-12-08T08:53:45.938Z,86573.56
2022-12-08T08:56:17.715Z,86574.94
2022-12-08T08:58:46.861Z,86576.91
2022-12-08T09:01:24.860Z,86572.09
2022-12-08T09:03:52.892Z,86575.56
2022-12-08T09:06:20.706Z,86581.03
2022-12-08T09:08:48.713Z,86577.75
2022-12-08T09:11:16.944Z,86581.22
2022-12-08T09:13:44.359Z,86582.13
2022-12-08T09:16:12.410Z,86583.34
2022-12-08T09:18:39.668Z,86584.88
2022-12-08T09:21:14.039Z,86575.50
2022-12-08T09:23:41.317Z,86572.50
2022-12-08T09:26:09.051Z,86567.50
2022-12-08T09:28:36.342Z,86569.47
2022-12-08T09:31:04.437Z,86560.53
2022-12-08T09:33:31.797Z,86563.69
2022-12-08T09:36:04.225Z,86562.03
2022-12-08T09:38:32.285Z,86565.50
2022-12-08T09:41:02.432Z,86556.25
2022-12-08T09:43:57.369Z,86561.53
2022-12-08T09:46:31.326Z,86553.34
2022-12-08T09:49:01.764Z,86554.69
2022-12-08T09:51:40.475Z,86547.69
2022-12-08T09:54:22.467Z,86555.25
2022-12-08T09:56:53.909Z,86544.34
2022-12-08T09:59:27.118Z,86548.25
2022-12-08T10:01:55.599Z,86540.50
2022-12-08T10:04:30.002Z,86539.72
2022-12-08T10:07:12.583Z,86527.56
2022-12-08T10:10:29.384Z,86527.06
2022-12-08T10:13:35.457Z,86521.44
2022-12-08T10:16:38.844Z,86509.44
2022-12-08T10:19:20.169Z,86509.41
2022-12-08T10:21:48.286Z,86503.59
2022-12-08T10:24:44.288Z,86499.16
2022-12-08T10:27:12.888Z,86499.75
2022-12-08T10:29:41.158Z,86495.78
2022-12-08T10:32:21.623Z,86492.69
2022-12-08T10:35:08.641Z,86494.63
2022-12-08T10:37:36.518Z,86484.03
2022-12-08T10:40:18.472Z,86482.44
2022-12-08T10:42:56.690Z,86480.00
2022-12-08T10:45:33.372Z,86476.16
2022-12-08T10:48:05.698Z,86467.91
2022-12-08T10:50:58.156Z,86463.31
2022-12-08T10:53:31.318Z,86466.13
2022-12-08T10:56:01.538Z,86458.50
2022-12-08T10:58:42.827Z,86452.38
2022-12-08T11:01:21.423Z,86447.47
2022-12-08T11:04:00.757Z,86439.41
2022-12-08T11:06:35.748Z,86448.03
2022-12-08T11:09:24.680Z,86447.19
2022-12-08T11:12:06.100Z,86444.06
2022-12-08T11:14:49.790Z,86438.63
2022-12-08T11:17:23.301Z,86444.03
2022-12-08T11:20:01.549Z,86438.78
2022-12-08T11:22:37.893Z,86430.91
2022-12-08T11:25:08.232Z,86428.63
2022-12-08T11:27:42.146Z,86427.81
2022-12-08T11:30:31.191Z,86428.00
2022-12-08T11:33:12.059Z,86421.66
2022-12-08T11:35:44.872Z,86416.03
2022-12-08T11:38:22.510Z,86406.78
2022-12-08T11:41:00.237Z,86405.31
2022-12-08T11:43:50.909Z,86408.75
2022-12-08T11:46:46.803Z,86402.56
2022-12-08T11:49:15.489Z,86404.38
2022-12-08T11:52:20.965Z,86396.19
2022-12-08T11:55:35.230Z,86403.44
2022-12-08T11:58:41.833Z,86406.75
2022-12-08T12:01:22.942Z,86407.06
2022-12-08T12:04:24.342Z,86403.00
2022-12-08T12:07:00.166Z,86393.66
2022-12-08T12:10:07.592Z,86392.25
2022-12-08T12:12:50.119Z,86382.59
2022-12-08T12:15:57.413Z,86393.56
2022-12-08T12:18:52.362Z,86394.00
2022-12-08T12:21:39.861Z,86393.03
2022-12-08T12:24:26.757Z,86391.28
2022-12-08T12:27:21.051Z,86383.03
2022-12-08T12:29:56.261Z,86391.06
2022-12-08T12:32:25.804Z,86388.38
2022-12-08T12:34:52.985Z,86387.97
2022-12-08T12:37:35.372Z,86391.59
2022-12-08T12:40:24.033Z,86393.94
2022-12-08T12:42:56.986Z,86384.25
2022-12-08T12:45:33.688Z,86383.72
2022-12-08T12:48:01.191Z,86381.78
2022-12-08T12:50:34.586Z,86375.13
2022-12-08T12:53:13.969Z,86372.56
2022-12-08T12:56:00.557Z,86376.81
2022-12-08T12:58:30.830Z,86364.44
2022-12-08T13:01:13.150Z,86375.44
2022-12-08T13:03:51.839Z,86368.00
2022-12-08T13:06:35.718Z,86368.75
2022-12-08T13:09:04.148Z,86369.38
2022-12-08T13:11:50.168Z,86369.16
2022-12-08T13:14:44.675Z,86368.41
2022-12-08T13:17:20.886Z,86362.81
2022-12-08T13:19:59.773Z,86362.06
2022-12-08T13:23:11.154Z,86358.63
2022-12-08T13:25:44.196Z,86356.25
2022-12-08T13:28:30.792Z,86359.16
2022-12-08T13:31:02.703Z,86360.84
2022-12-08T13:33:41.324Z,86360.41
2022-12-08T13:36:25.915Z,86359.63
2022-12-08T13:38:59.909Z,86356.00
2022-12-08T13:41:38.210Z,86353.84
2022-12-08T13:47:33.379Z,86344.31
2022-12-08T13:59:32.287Z,86366.22
2022-12-08T14:02:16.603Z,86368.66
2022-12-08T14:05:17.311Z,86368.03
2022-12-08T14:07:35.568Z,86376.38
2022-12-08T14:10:07.428Z,86372.63
2022-12-08T14:12:34.807Z,86390.03
2022-12-08T14:15:07.001Z,86392.94
2022-12-08T14:17:34.793Z,86392.03
2022-12-08T14:20:28.529Z,86386.25
2022-12-08T14:22:57.101Z,86388.72
2022-12-08T14:25:26.983Z,86389.34
2022-12-08T14:28:01.728Z,86385.69
2022-12-08T14:30:32.846Z,86385.41
2022-12-08T14:33:03.366Z,86384.19
2022-12-08T14:35:39.078Z,86382.69
2022-12-08T14:38:12.188Z,86395.69
2022-12-08T14:40:43.200Z,86386.44
2022-12-08T14:43:10.423Z,86386.00
2022-12-08T14:45:40.641Z,86387.84
2022-12-08T14:48:35.887Z,86381.06
2022-12-08T14:51:20.570Z,86390.50
2022-12-08T14:54:10.118Z,86390.69
2022-12-08T14:56:42.252Z,86392.81
2022-12-08T14:59:41.518Z,86389.19
2022-12-08T15:02:16.668Z,86393.91
2022-12-08T15:04:48.463Z,86396.78
2022-12-08T15:07:23.865Z,86395.28
2022-12-08T15:10:17.111Z,86393.00
2022-12-08T15:13:09.261Z,86403.19
2022-12-08T15:15:55.832Z,86398.22
2022-12-08T15:18:39.052Z,86409.78
2022-12-08T15:21:10.336Z,86399.56
2022-12-08T15:23:45.739Z,86399.56
2022-12-08T15:26:24.309Z,86397.34
2022-12-08T15:28:51.961Z,86405.94
2022-12-08T15:31:19.514Z,86413.56
2022-12-08T15:33:47.048Z,86418.25
2022-12-08T15:36:14.178Z,86416.75
2022-12-08T15:38:42.977Z,86419.63
2022-12-08T15:41:14.626Z,86420.69
2022-12-08T15:43:42.609Z,86420.25
2022-12-08T15:46:10.139Z,86418.13
2022-12-08T15:48:37.970Z,86408.91
2022-12-08T15:51:05.204Z,86414.97
2022-12-08T15:53:32.438Z,86417.84
2022-12-08T15:58:56.130Z,86440.19
2022-12-08T16:01:24.484Z,86440.38
2022-12-08T16:09:42.099Z,86454.75
2022-12-08T16:12:22.305Z,86447.75
2022-12-08T16:17:39.095Z,86456.41
2022-12-08T16:20:15.852Z,86459.59
2022-12-08T16:23:13.163Z,86451.41
2022-12-08T16:25:46.037Z,86450.22
2022-12-08T16:28:52.145Z,86438.41
2022-12-08T16:31:11.729Z,86440.09
2022-12-08T16:33:41.593Z,86441.66
2022-12-08T16:36:10.278Z,86437.84
2022-12-08T16:38:37.419Z,86437.97
2022-12-08T16:41:04.807Z,86451.28
2022-12-08T16:43:35.851Z,86450.09
2022-12-08T16:46:03.836Z,86454.31
2022-12-08T16:48:31.270Z,86455.25
2022-12-08T16:50:58.496Z,86456.88
2022-12-08T16:53:25.737Z,86449.59
2022-12-08T16:55:52.962Z,86452.91
2022-12-08T16:58:20.207Z,86451.09
2022-12-08T17:00:47.598Z,86457.00
2022-12-08T17:03:16.139Z,86458.25
2022-12-08T17:05:44.117Z,86456.28
2022-12-08T17:08:11.640Z,86448.44
2022-12-08T17:10:40.266Z,86443.31
2022-12-08T17:13:08.483Z,86447.81
2022-12-08T17:15:35.690Z,86437.66
2022-12-08T17:18:03.563Z,86440.81
2022-12-08T17:20:31.071Z,86435.38
2022-12-08T17:22:58.869Z,86436.84
2022-12-08T17:25:27.393Z,86443.31
2022-12-08T17:27:55.068Z,86451.53
2022-12-08T17:30:22.484Z,86451.25
2022-12-08T17:32:50.457Z,86452.31
2022-12-08T17:35:17.972Z,86456.69
2022-12-08T17:37:45.986Z,86451.41
2022-12-08T17:40:13.786Z,86446.44
2022-12-08T17:42:41.038Z,86444.94
2022-12-08T17:45:09.423Z,86454.03
2022-12-08T17:47:37.491Z,86452.69
2022-12-08T17:50:06.809Z,86444.66
2022-12-08T17:52:34.434Z,86451.94
2022-12-08T17:55:02.125Z,86450.44
2022-12-08T17:57:29.312Z,86450.59
2022-12-08T17:59:56.589Z,86450.59
2022-12-08T18:02:23.836Z,86460.88
2022-12-08T18:04:51.140Z,86459.50
2022-12-08T18:07:18.339Z,86462.09
2022-12-08T18:09:45.695Z,86470.69
2022-12-08T18:12:12.990Z,86473.91
2022-12-08T18:14:40.156Z,86484.97
2022-12-08T18:17:10.630Z,86485.00
2022-12-08T18:19:38.013Z,86484.09
2022-12-08T18:22:05.383Z,86489.25
2022-12-08T18:24:32.789Z,86497.13
2022-12-08T18:26:59.985Z,86495.63
2022-12-08T18:29:28.294Z,86493.81
2022-12-08T18:31:56.229Z,86496.41
2022-12-08T18:34:23.708Z,86506.53
2022-12-08T18:36:51.325Z,86505.66
2022-12-08T18:39:28.508Z,86516.53
2022-12-08T18:42:00.153Z,86516.41
2022-12-08T18:44:27.530Z,86520.63
2022-12-08T18:46:54.795Z,86526.81
2022-12-08T18:49:22.099Z,86522.59
2022-12-08T18:51:49.322Z,86530.00
2022-12-08T18:54:16.844Z,86528.06
2022-12-08T18:56:44.511Z,86526.66
2022-12-08T18:59:13.283Z,86531.53
2022-12-08T19:01:41.321Z,86523.38
2022-12-08T19:06:57.751Z,86530.44
2022-12-08T19:09:25.572Z,86531.22
2022-12-08T19:11:54.426Z,86531.97
2022-12-08T19:14:27.903Z,86532.44
2022-12-08T19:16:57.658Z,86525.16
2022-12-08T19:19:27.154Z,86527.13
2022-12-08T19:21:55.079Z,86534.38
2022-12-08T19:24:22.809Z,86536.38
2022-12-08T19:26:50.441Z,86539.66
2022-12-08T19:29:21.090Z,86542.53
2022-12-08T19:31:48.505Z,86535.44
2022-12-08T19:34:16.022Z,86540.56
2022-12-08T19:36:43.306Z,86535.88
2022-12-08T19:39:23.195Z,86535.91
2022-12-08T19:41:51.395Z,86533.63
2022-12-08T19:44:29.240Z,86534.06
2022-12-08T19:46:56.520Z,86541.16
2022-12-08T19:49:23.785Z,86548.28
2022-12-08T19:51:51.077Z,86552.06
2022-12-08T19:54:18.346Z,86560.38
2022-12-08T19:56:45.670Z,86564.94
2022-12-08T19:59:12.884Z,86551.75
2022-12-08T20:01:40.142Z,86550.22
2022-12-08T20:04:07.752Z,86540.09
2022-12-08T20:06:34.989Z,86537.84
2022-12-08T20:09:02.202Z,86537.97
2022-12-08T20:11:29.604Z,86539.78
2022-12-08T20:13:56.830Z,86553.88
2022-12-08T20:16:24.292Z,86548.28
2022-12-08T20:18:52.097Z,86551.75
2022-12-08T20:21:19.683Z,86547.81
2022-12-08T20:23:47.030Z,86544.66
2022-12-08T20:26:14.417Z,86549.47
2022-12-08T20:28:41.711Z,86548.28
2022-12-08T20:31:20.210Z,86540.69
2022-12-08T20:33:48.561Z,86543.75
2022-12-08T20:36:18.560Z,86537.81
2022-12-08T20:38:47.091Z,86540.69
2022-12-08T20:41:15.299Z,86550.84
2022-12-08T20:43:47.828Z,86552.81
2022-12-08T20:46:18.181Z,86549.16
2022-12-08T20:48:45.537Z,86554.31
2022-12-08T20:51:19.410Z,86542.06
2022-12-08T20:53:47.548Z,86544.50
2022-12-08T20:56:22.014Z,86551.44
2022-12-08T20:58:51.039Z,86543.00
2022-12-08T21:01:22.665Z,86545.09
2022-12-08T21:03:51.265Z,86552.19
2022-12-08T21:06:23.412Z,86554.00
2022-12-08T21:08:52.129Z,86544.03
2022-12-08T21:11:19.777Z,86551.00
2022-12-08T21:13:47.592Z,86536.47
2022-12-08T21:16:16.048Z,86535.56
2022-12-08T21:18:43.476Z,86531.78
2022-12-08T21:21:14.457Z,86523.00
2022-12-08T21:23:43.821Z,86522.56
2022-12-08T21:26:21.108Z,86527.84
2022-12-08T21:28:48.839Z,86516.66
2022-12-08T21:31:19.906Z,86527.56
2022-12-08T21:33:48.902Z,86527.56
2022-12-08T21:36:21.343Z,86520.47
2022-12-08T21:38:55.675Z,86520.47
2022-12-08T21:41:25.296Z,86518.50
2022-12-08T21:43:53.235Z,86511.38
2022-12-08T21:46:20.744Z,86502.94
2022-12-08T21:48:48.165Z,86513.66
2022-12-08T21:51:15.475Z,86520.47
2022-12-08T21:53:42.746Z,86513.06
2022-12-08T21:56:10.689Z,86510.50
2022-12-08T21:58:37.923Z,86506.56
2022-12-08T22:01:10.745Z,86505.22
2022-12-08T22:03:40.193Z,86503.69
2022-12-08T22:06:13.859Z,86504.13
2022-12-08T22:08:42.509Z,86518.38
2022-12-08T22:11:11.733Z,86521.66
2022-12-08T22:13:41.627Z,86528.66
2022-12-08T22:16:12.623Z,86515.63
2022-12-08T22:18:40.615Z,86512.75
2022-12-08T22:21:11.304Z,86513.97
2022-12-08T22:23:39.184Z,86504.13
2022-12-08T22:26:08.318Z,86499.75
2022-12-08T22:28:40.285Z,86499.75
2022-12-08T22:31:18.360Z,86502.03
2022-12-08T22:33:45.650Z,86501.56
2022-12-08T22:36:23.458Z,86502.63
2022-12-08T22:38:51.934Z,86498.97
2022-12-08T22:41:20.250Z,86497.47
2022-12-08T22:43:48.057Z,86505.34
2022-12-08T22:46:21.422Z,86504.59
2022-12-08T22:48:49.639Z,86499.16
2022-12-08T22:51:18.520Z,86514.88
2022-12-08T22:53:46.814Z,86501.56
2022-12-08T22:56:16.743Z,86493.38
2022-12-08T22:58:45.037Z,86500.66
2022-12-08T23:01:44.464Z,86494.47
2022-12-08T23:04:17.521Z,86489.00
2022-12-08T23:06:45.574Z,86495.97
2022-12-08T23:09:13.038Z,86485.22
2022-12-08T23:11:40.674Z,86491.75
2022-12-08T23:14:07.928Z,86493.41
2022-12-08T23:16:35.383Z,86503.06
2022-12-08T23:19:02.708Z,86494.41
2022-12-08T23:21:30.174Z,86487.16
2022-12-08T23:23:57.368Z,86491.56
2022-12-08T23:26:28.027Z,86493.97
2022-12-08T23:28:56.886Z,86491.25
2022-12-08T23:31:25.189Z,86487.16
2022-12-08T23:33:53.374Z,86485.66
2022-12-08T23:36:23.089Z,86487.78
2022-12-08T23:38:50.441Z,86486.88
2022-12-08T23:41:17.812Z,86487.34
2022-12-08T23:43:50.720Z,86478.09
2022-12-08T23:46:21.116Z,86481.88
2022-12-08T23:48:49.131Z,86475.09
2022-12-08T23:51:17.670Z,86478.22
2022-12-08T23:53:46.354Z,86476.59
2022-12-08T23:56:16.826Z,86473.25
2022-12-08T23:58:45.077Z,86466.44
